sensor_id;sensor_type;location;lat;lon;timestamp;P1;durP1;ratioP1;P2;durP2;ratioP2
44304;SDS011;30019;50.576;8.568;2024-03-06T00:01:53;55.15;;;29.27;;
44304;SDS011;30019;50.576;8.568;2024-03-06T00:04:19;48.70;;;28.38;;
44304;SDS011;30019;50.576;8.568;2024-03-06T00:06:45;52.88;;;26.63;;
44304;SDS011;30019;50.576;8.568;2024-03-06T00:09:11;42.90;;;25.80;;
44304;SDS011;30019;50.576;8.568;2024-03-06T00:11:37;50.80;;;27.45;;
44304;SDS011;30019;50.576;8.568;2024-03-06T00:14:03;46.65;;;26.60;;
44304;SDS011;30019;50.576;8.568;2024-03-06T00:16:32;46.80;;;27.00;;
44304;SDS011;30019;50.576;8.568;2024-03-06T00:18:59;47.00;;;27.38;;
44304;SDS011;30019;50.576;8.568;2024-03-06T00:21:25;52.75;;;27.30;;
44304;SDS011;30019;50.576;8.568;2024-03-06T00:23:51;46.72;;;26.17;;
44304;SDS011;30019;50.576;8.568;2024-03-06T00:26:17;52.42;;;29.15;;
44304;SDS011;30019;50.576;8.568;2024-03-06T00:28:43;56.35;;;29.63;;
44304;SDS011;30019;50.576;8.568;2024-03-06T00:31:09;47.13;;;28.15;;
44304;SDS011;30019;50.576;8.568;2024-03-06T00:33:35;57.22;;;31.95;;
44304;SDS011;30019;50.576;8.568;2024-03-06T00:36:01;61.60;;;34.30;;
44304;SDS011;30019;50.576;8.568;2024-03-06T00:38:27;64.38;;;34.53;;
44304;SDS011;30019;50.576;8.568;2024-03-06T00:40:53;68.05;;;36.75;;
44304;SDS011;30019;50.576;8.568;2024-03-06T00:43:19;58.75;;;32.65;;
44304;SDS011;30019;50.576;8.568;2024-03-06T00:45:45;62.92;;;33.60;;
44304;SDS011;30019;50.576;8.568;2024-03-06T00:48:11;59.75;;;33.30;;
44304;SDS011;30019;50.576;8.568;2024-03-06T00:50:37;62.25;;;34.65;;
44304;SDS011;30019;50.576;8.568;2024-03-06T00:53:03;65.68;;;34.78;;
44304;SDS011;30019;50.576;8.568;2024-03-06T00:55:29;61.05;;;34.22;;
44304;SDS011;30019;50.576;8.568;2024-03-06T00:57:55;60.30;;;33.85;;
44304;SDS011;30019;50.576;8.568;2024-03-06T01:00:21;58.13;;;34.10;;
44304;SDS011;30019;50.576;8.568;2024-03-06T01:02:48;61.78;;;32.63;;
44304;SDS011;30019;50.576;8.568;2024-03-06T01:05:14;70.38;;;34.60;;
44304;SDS011;30019;50.576;8.568;2024-03-06T01:07:40;57.47;;;30.45;;
44304;SDS011;30019;50.576;8.568;2024-03-06T01:10:06;64.38;;;33.40;;
44304;SDS011;30019;50.576;8.568;2024-03-06T01:15:37;62.83;;;32.15;;
44304;SDS011;30019;50.576;8.568;2024-03-06T01:24:15;53.15;;;31.35;;
44304;SDS011;30019;50.576;8.568;2024-03-06T01:26:41;65.88;;;35.63;;
44304;SDS011;30019;50.576;8.568;2024-03-06T01:29:46;64.15;;;33.38;;
44304;SDS011;30019;50.576;8.568;2024-03-06T01:32:12;67.35;;;35.58;;
44304;SDS011;30019;50.576;8.568;2024-03-06T01:34:38;67.88;;;35.17;;
44304;SDS011;30019;50.576;8.568;2024-03-06T01:37:04;70.75;;;36.80;;
44304;SDS011;30019;50.576;8.568;2024-03-06T01:39:30;65.78;;;34.47;;
44304;SDS011;30019;50.576;8.568;2024-03-06T01:41:57;70.13;;;35.65;;
44304;SDS011;30019;50.576;8.568;2024-03-06T01:44:23;66.75;;;33.95;;
44304;SDS011;30019;50.576;8.568;2024-03-06T02:05:48;61.30;;;33.28;;
44304;SDS011;30019;50.576;8.568;2024-03-06T02:08:14;72.10;;;35.75;;
44304;SDS011;30019;50.576;8.568;2024-03-06T02:10:40;62.30;;;32.97;;
44304;SDS011;30019;50.576;8.568;2024-03-06T02:13:06;63.45;;;33.53;;
44304;SDS011;30019;50.576;8.568;2024-03-06T02:15:32;70.22;;;35.30;;
44304;SDS011;30019;50.576;8.568;2024-03-06T02:17:58;69.30;;;35.70;;
44304;SDS011;30019;50.576;8.568;2024-03-06T02:20:25;64.40;;;33.03;;
44304;SDS011;30019;50.576;8.568;2024-03-06T02:22:51;57.20;;;32.50;;
44304;SDS011;30019;50.576;8.568;2024-03-06T02:25:17;51.20;;;30.50;;
44304;SDS011;30019;50.576;8.568;2024-03-06T02:27:44;43.05;;;25.80;;
44304;SDS011;30019;50.576;8.568;2024-03-06T02:30:10;52.28;;;29.23;;
44304;SDS011;30019;50.576;8.568;2024-03-06T02:32:36;55.28;;;30.05;;
44304;SDS011;30019;50.576;8.568;2024-03-06T02:35:02;54.08;;;29.27;;
44304;SDS011;30019;50.576;8.568;2024-03-06T02:37:33;60.78;;;30.80;;
44304;SDS011;30019;50.576;8.568;2024-03-06T02:39:59;52.17;;;27.55;;
44304;SDS011;30019;50.576;8.568;2024-03-06T02:42:27;43.95;;;25.77;;
44304;SDS011;30019;50.576;8.568;2024-03-06T02:45:30;44.97;;;25.17;;
44304;SDS011;30019;50.576;8.568;2024-03-06T02:54:03;52.83;;;28.95;;
44304;SDS011;30019;50.576;8.568;2024-03-06T02:56:29;64.38;;;29.88;;
44304;SDS011;30019;50.576;8.568;2024-03-06T02:58:55;70.18;;;34.55;;
44304;SDS011;30019;50.576;8.568;2024-03-06T03:01:22;68.18;;;34.25;;
44304;SDS011;30019;50.576;8.568;2024-03-06T03:03:48;72.45;;;36.63;;
44304;SDS011;30019;50.576;8.568;2024-03-06T03:06:23;80.45;;;37.60;;
44304;SDS011;30019;50.576;8.568;2024-03-06T03:08:49;75.18;;;37.00;;
44304;SDS011;30019;50.576;8.568;2024-03-06T03:11:15;72.40;;;35.65;;
44304;SDS011;30019;50.576;8.568;2024-03-06T03:13:41;79.18;;;37.80;;
44304;SDS011;30019;50.576;8.568;2024-03-06T03:16:15;75.28;;;34.78;;
44304;SDS011;30019;50.576;8.568;2024-03-06T03:18:42;79.10;;;35.20;;
44304;SDS011;30019;50.576;8.568;2024-03-06T03:24:23;80.82;;;37.85;;
44304;SDS011;30019;50.576;8.568;2024-03-06T03:26:51;93.25;;;40.58;;
44304;SDS011;30019;50.576;8.568;2024-03-06T03:29:17;85.53;;;40.10;;
44304;SDS011;30019;50.576;8.568;2024-03-06T03:31:43;87.85;;;39.28;;
44304;SDS011;30019;50.576;8.568;2024-03-06T03:34:09;90.38;;;40.40;;
44304;SDS011;30019;50.576;8.568;2024-03-06T03:36:39;94.22;;;41.78;;
44304;SDS011;30019;50.576;8.568;2024-03-06T03:45:47;101.78;;;41.20;;
44304;SDS011;30019;50.576;8.568;2024-03-06T03:48:13;97.47;;;41.47;;
44304;SDS011;30019;50.576;8.568;2024-03-06T03:50:39;86.90;;;39.83;;
44304;SDS011;30019;50.576;8.568;2024-03-06T03:53:05;80.68;;;37.38;;
44304;SDS011;30019;50.576;8.568;2024-03-06T03:55:31;76.03;;;37.13;;
44304;SDS011;30019;50.576;8.568;2024-03-06T03:57:58;70.85;;;34.92;;
44304;SDS011;30019;50.576;8.568;2024-03-06T04:01:03;60.95;;;31.23;;
44304;SDS011;30019;50.576;8.568;2024-03-06T04:03:29;69.13;;;33.40;;
44304;SDS011;30019;50.576;8.568;2024-03-06T04:05:55;83.05;;;39.30;;
44304;SDS011;30019;50.576;8.568;2024-03-06T04:08:21;84.97;;;38.60;;
44304;SDS011;30019;50.576;8.568;2024-03-06T04:10:47;85.63;;;39.75;;
44304;SDS011;30019;50.576;8.568;2024-03-06T04:13:14;87.60;;;41.83;;
44304;SDS011;30019;50.576;8.568;2024-03-06T04:22:18;91.70;;;40.55;;
44304;SDS011;30019;50.576;8.568;2024-03-06T04:25:24;82.25;;;38.80;;
44304;SDS011;30019;50.576;8.568;2024-03-06T04:31:32;97.18;;;39.28;;
44304;SDS011;30019;50.576;8.568;2024-03-06T04:33:58;96.68;;;41.35;;
44304;SDS011;30019;50.576;8.568;2024-03-06T04:36:24;100.95;;;43.28;;
44304;SDS011;30019;50.576;8.568;2024-03-06T04:54:45;97.15;;;40.85;;
44304;SDS011;30019;50.576;8.568;2024-03-06T05:00:15;115.82;;;43.70;;
44304;SDS011;30019;50.576;8.568;2024-03-06T05:02:42;117.47;;;43.42;;
44304;SDS011;30019;50.576;8.568;2024-03-06T05:05:41;131.65;;;46.70;;
44304;SDS011;30019;50.576;8.568;2024-03-06T05:14:14;151.45;;;49.45;;
44304;SDS011;30019;50.576;8.568;2024-03-06T05:16:40;197.75;;;57.58;;
44304;SDS011;30019;50.576;8.568;2024-03-06T05:23:14;280.77;;;69.85;;
44304;SDS011;30019;50.576;8.568;2024-03-06T05:29:19;249.30;;;65.18;;
44304;SDS011;30019;50.576;8.568;2024-03-06T05:31:45;260.98;;;67.50;;
44304;SDS011;30019;50.576;8.568;2024-03-06T05:40:28;159.85;;;53.45;;
44304;SDS011;30019;50.576;8.568;2024-03-06T05:46:32;173.13;;;52.72;;
44304;SDS011;30019;50.576;8.568;2024-03-06T05:55:44;166.85;;;53.35;;
44304;SDS011;30019;50.576;8.568;2024-03-06T06:01:23;170.20;;;51.85;;
44304;SDS011;30019;50.576;8.568;2024-03-06T06:03:49;210.82;;;56.67;;
44304;SDS011;30019;50.576;8.568;2024-03-06T06:09:19;289.92;;;62.97;;
44304;SDS011;30019;50.576;8.568;2024-03-06T06:11:45;254.65;;;63.28;;
44304;SDS011;30019;50.576;8.568;2024-03-06T06:14:24;303.48;;;64.25;;
44304;SDS011;30019;50.576;8.568;2024-03-06T06:16:51;257.20;;;59.72;;
44304;SDS011;30019;50.576;8.568;2024-03-06T06:19:21;304.58;;;64.03;;
44304;SDS011;30019;50.576;8.568;2024-03-06T06:21:47;276.42;;;61.13;;
44304;SDS011;30019;50.576;8.568;2024-03-06T06:24:14;266.13;;;59.85;;
44304;SDS011;30019;50.576;8.568;2024-03-06T06:27:00;244.88;;;62.88;;
44304;SDS011;30019;50.576;8.568;2024-03-06T06:29:27;263.25;;;67.05;;
44304;SDS011;30019;50.576;8.568;2024-03-06T06:32:09;313.25;;;73.47;;
44304;SDS011;30019;50.576;8.568;2024-03-06T06:35:19;342.65;;;74.28;;
44304;SDS011;30019;50.576;8.568;2024-03-06T06:37:55;388.80;;;70.13;;
44304;SDS011;30019;50.576;8.568;2024-03-06T06:40:21;432.33;;;74.57;;
44304;SDS011;30019;50.576;8.568;2024-03-06T06:45:51;295.35;;;57.13;;
44304;SDS011;30019;50.576;8.568;2024-03-06T06:48:18;302.38;;;58.53;;
44304;SDS011;30019;50.576;8.568;2024-03-06T06:50:51;376.27;;;63.28;;
44304;SDS011;30019;50.576;8.568;2024-03-06T06:56:23;314.40;;;55.47;;
44304;SDS011;30019;50.576;8.568;2024-03-06T06:58:58;321.73;;;49.92;;
44304;SDS011;30019;50.576;8.568;2024-03-06T07:04:53;349.67;;;56.45;;
44304;SDS011;30019;50.576;8.568;2024-03-06T07:07:19;340.58;;;61.03;;
44304;SDS011;30019;50.576;8.568;2024-03-06T07:09:45;335.35;;;56.42;;
44304;SDS011;30019;50.576;8.568;2024-03-06T07:12:11;319.80;;;60.40;;
44304;SDS011;30019;50.576;8.568;2024-03-06T07:14:37;278.13;;;61.58;;
44304;SDS011;30019;50.576;8.568;2024-03-06T07:17:03;314.55;;;55.00;;
44304;SDS011;30019;50.576;8.568;2024-03-06T07:19:29;398.35;;;59.17;;
44304;SDS011;30019;50.576;8.568;2024-03-06T07:21:55;300.65;;;57.55;;
44304;SDS011;30019;50.576;8.568;2024-03-06T07:24:21;324.55;;;56.63;;
44304;SDS011;30019;50.576;8.568;2024-03-06T07:26:47;240.70;;;52.85;;
44304;SDS011;30019;50.576;8.568;2024-03-06T07:29:13;302.85;;;51.22;;
44304;SDS011;30019;50.576;8.568;2024-03-06T07:31:43;355.60;;;52.35;;
44304;SDS011;30019;50.576;8.568;2024-03-06T07:34:09;320.90;;;52.80;;
44304;SDS011;30019;50.576;8.568;2024-03-06T07:36:36;279.52;;;52.05;;
44304;SDS011;30019;50.576;8.568;2024-03-06T07:39:02;305.30;;;54.38;;
44304;SDS011;30019;50.576;8.568;2024-03-06T07:41:29;404.80;;;59.50;;
44304;SDS011;30019;50.576;8.568;2024-03-06T07:43:57;394.13;;;58.55;;
44304;SDS011;30019;50.576;8.568;2024-03-06T07:46:24;406.67;;;53.78;;
44304;SDS011;30019;50.576;8.568;2024-03-06T07:48:51;360.33;;;56.85;;
44304;SDS011;30019;50.576;8.568;2024-03-06T07:51:18;411.00;;;56.90;;
44304;SDS011;30019;50.576;8.568;2024-03-06T07:53:44;461.17;;;61.13;;
44304;SDS011;30019;50.576;8.568;2024-03-06T07:56:11;422.80;;;60.67;;
44304;SDS011;30019;50.576;8.568;2024-03-06T07:58:37;359.10;;;63.95;;
44304;SDS011;30019;50.576;8.568;2024-03-06T08:01:03;331.13;;;53.47;;
44304;SDS011;30019;50.576;8.568;2024-03-06T08:03:30;320.70;;;52.50;;
44304;SDS011;30019;50.576;8.568;2024-03-06T08:06:02;358.63;;;55.85;;
44304;SDS011;30019;50.576;8.568;2024-03-06T08:08:28;255.00;;;51.75;;
44304;SDS011;30019;50.576;8.568;2024-03-06T08:10:54;267.65;;;44.83;;
44304;SDS011;30019;50.576;8.568;2024-03-06T08:13:20;308.73;;;40.70;;
44304;SDS011;30019;50.576;8.568;2024-03-06T08:15:46;298.08;;;47.70;;
44304;SDS011;30019;50.576;8.568;2024-03-06T08:18:12;268.13;;;49.83;;
44304;SDS011;30019;50.576;8.568;2024-03-06T08:20:40;196.93;;;52.35;;
44304;SDS011;30019;50.576;8.568;2024-03-06T08:23:06;175.73;;;42.72;;
44304;SDS011;30019;50.576;8.568;2024-03-06T08:25:32;140.57;;;38.30;;
44304;SDS011;30019;50.576;8.568;2024-03-06T08:27:58;130.40;;;39.38;;
44304;SDS011;30019;50.576;8.568;2024-03-06T08:30:24;152.88;;;40.47;;
44304;SDS011;30019;50.576;8.568;2024-03-06T08:32:51;157.07;;;39.25;;
44304;SDS011;30019;50.576;8.568;2024-03-06T08:35:17;133.85;;;36.13;;
44304;SDS011;30019;50.576;8.568;2024-03-06T08:37:46;116.22;;;39.10;;
44304;SDS011;30019;50.576;8.568;2024-03-06T08:40:12;146.93;;;36.97;;
44304;SDS011;30019;50.576;8.568;2024-03-06T08:42:42;142.98;;;38.95;;
44304;SDS011;30019;50.576;8.568;2024-03-06T08:45:11;133.43;;;35.90;;
44304;SDS011;30019;50.576;8.568;2024-03-06T08:47:38;105.32;;;34.90;;
44304;SDS011;30019;50.576;8.568;2024-03-06T08:50:04;130.18;;;36.90;;
44304;SDS011;30019;50.576;8.568;2024-03-06T08:52:30;139.60;;;32.40;;
44304;SDS011;30019;50.576;8.568;2024-03-06T08:54:56;66.05;;;32.00;;
44304;SDS011;30019;50.576;8.568;2024-03-06T08:57:22;80.93;;;34.92;;
44304;SDS011;30019;50.576;8.568;2024-03-06T08:59:50;78.80;;;35.13;;
44304;SDS011;30019;50.576;8.568;2024-03-06T09:02:18;82.03;;;31.45;;
44304;SDS011;30019;50.576;8.568;2024-03-06T09:04:44;70.18;;;35.58;;
44304;SDS011;30019;50.576;8.568;2024-03-06T09:07:11;78.03;;;32.63;;
44304;SDS011;30019;50.576;8.568;2024-03-06T09:09:38;80.70;;;34.35;;
44304;SDS011;30019;50.576;8.568;2024-03-06T09:12:05;87.60;;;35.05;;
44304;SDS011;30019;50.576;8.568;2024-03-06T09:14:31;97.78;;;33.58;;
44304;SDS011;30019;50.576;8.568;2024-03-06T09:16:58;80.60;;;36.03;;
44304;SDS011;30019;50.576;8.568;2024-03-06T09:19:23;74.47;;;35.58;;
44304;SDS011;30019;50.576;8.568;2024-03-06T09:21:49;70.45;;;34.25;;
44304;SDS011;30019;50.576;8.568;2024-03-06T09:24:16;120.68;;;31.13;;
44304;SDS011;30019;50.576;8.568;2024-03-06T09:26:44;59.08;;;31.00;;
44304;SDS011;30019;50.576;8.568;2024-03-06T09:29:10;56.50;;;28.77;;
44304;SDS011;30019;50.576;8.568;2024-03-06T09:31:36;54.63;;;29.90;;
44304;SDS011;30019;50.576;8.568;2024-03-06T09:34:02;55.03;;;30.35;;
44304;SDS011;30019;50.576;8.568;2024-03-06T09:36:28;54.15;;;29.63;;
44304;SDS011;30019;50.576;8.568;2024-03-06T09:38:54;48.47;;;30.55;;
44304;SDS011;30019;50.576;8.568;2024-03-06T09:41:21;49.92;;;29.02;;
44304;SDS011;30019;50.576;8.568;2024-03-06T09:43:47;50.22;;;29.33;;
44304;SDS011;30019;50.576;8.568;2024-03-06T09:46:15;47.35;;;28.27;;
44304;SDS011;30019;50.576;8.568;2024-03-06T09:48:45;49.08;;;29.65;;
44304;SDS011;30019;50.576;8.568;2024-03-06T09:51:12;47.92;;;27.75;;
44304;SDS011;30019;50.576;8.568;2024-03-06T09:53:44;44.20;;;27.77;;
44304;SDS011;30019;50.576;8.568;2024-03-06T09:56:16;52.58;;;29.77;;
44304;SDS011;30019;50.576;8.568;2024-03-06T09:58:44;48.70;;;26.80;;
44304;SDS011;30019;50.576;8.568;2024-03-06T10:01:10;42.97;;;27.50;;
44304;SDS011;30019;50.576;8.568;2024-03-06T10:03:38;44.85;;;26.65;;
44304;SDS011;30019;50.576;8.568;2024-03-06T10:06:07;46.25;;;26.80;;
44304;SDS011;30019;50.576;8.568;2024-03-06T10:08:33;41.17;;;26.02;;
44304;SDS011;30019;50.576;8.568;2024-03-06T10:11:02;40.42;;;25.58;;
44304;SDS011;30019;50.576;8.568;2024-03-06T10:14:07;35.45;;;23.77;;
44304;SDS011;30019;50.576;8.568;2024-03-06T10:16:36;41.60;;;24.92;;
44304;SDS011;30019;50.576;8.568;2024-03-06T10:19:21;39.80;;;25.42;;
44304;SDS011;30019;50.576;8.568;2024-03-06T10:21:48;38.70;;;24.48;;
44304;SDS011;30019;50.576;8.568;2024-03-06T10:24:24;44.17;;;25.15;;
44304;SDS011;30019;50.576;8.568;2024-03-06T10:26:50;39.05;;;25.02;;
44304;SDS011;30019;50.576;8.568;2024-03-06T10:29:19;42.25;;;25.15;;
44304;SDS011;30019;50.576;8.568;2024-03-06T10:31:49;39.92;;;24.38;;
44304;SDS011;30019;50.576;8.568;2024-03-06T10:34:16;40.20;;;23.13;;
44304;SDS011;30019;50.576;8.568;2024-03-06T10:36:43;37.45;;;23.90;;
44304;SDS011;30019;50.576;8.568;2024-03-06T10:39:11;37.28;;;22.67;;
44304;SDS011;30019;50.576;8.568;2024-03-06T10:41:41;34.65;;;21.50;;
44304;SDS011;30019;50.576;8.568;2024-03-06T10:44:11;33.13;;;21.70;;
44304;SDS011;30019;50.576;8.568;2024-03-06T10:46:44;34.63;;;21.30;;
44304;SDS011;30019;50.576;8.568;2024-03-06T10:49:12;35.80;;;22.00;;
44304;SDS011;30019;50.576;8.568;2024-03-06T10:51:40;32.38;;;21.55;;
44304;SDS011;30019;50.576;8.568;2024-03-06T10:54:09;30.17;;;19.92;;
44304;SDS011;30019;50.576;8.568;2024-03-06T10:56:38;32.22;;;20.25;;
44304;SDS011;30019;50.576;8.568;2024-03-06T10:59:04;32.30;;;20.15;;
44304;SDS011;30019;50.576;8.568;2024-03-06T11:01:32;30.50;;;19.60;;
44304;SDS011;30019;50.576;8.568;2024-03-06T11:04:00;29.10;;;19.10;;
44304;SDS011;30019;50.576;8.568;2024-03-06T11:06:26;31.20;;;19.83;;
44304;SDS011;30019;50.576;8.568;2024-03-06T11:08:55;24.15;;;17.23;;
44304;SDS011;30019;50.576;8.568;2024-03-06T11:11:22;29.02;;;18.40;;
44304;SDS011;30019;50.576;8.568;2024-03-06T11:13:48;33.85;;;21.35;;
44304;SDS011;30019;50.576;8.568;2024-03-06T11:16:15;29.23;;;20.27;;
44304;SDS011;30019;50.576;8.568;2024-03-06T11:18:41;28.33;;;19.17;;
44304;SDS011;30019;50.576;8.568;2024-03-06T11:23:34;32.25;;;19.10;;
44304;SDS011;30019;50.576;8.568;2024-03-06T11:26:01;24.83;;;17.75;;
44304;SDS011;30019;50.576;8.568;2024-03-06T11:28:29;26.83;;;17.83;;
44304;SDS011;30019;50.576;8.568;2024-03-06T11:33:38;28.60;;;18.50;;
44304;SDS011;30019;50.576;8.568;2024-03-06T11:39:04;25.20;;;16.38;;
44304;SDS011;30019;50.576;8.568;2024-03-06T11:41:29;23.02;;;16.77;;
44304;SDS011;30019;50.576;8.568;2024-03-06T11:43:56;27.08;;;18.15;;
44304;SDS011;30019;50.576;8.568;2024-03-06T11:46:23;26.15;;;18.60;;
44304;SDS011;30019;50.576;8.568;2024-03-06T11:48:55;26.27;;;17.85;;
44304;SDS011;30019;50.576;8.568;2024-03-06T11:51:22;26.30;;;18.33;;
44304;SDS011;30019;50.576;8.568;2024-03-06T11:53:52;26.00;;;17.40;;
44304;SDS011;30019;50.576;8.568;2024-03-06T11:56:19;25.38;;;17.05;;
44304;SDS011;30019;50.576;8.568;2024-03-06T11:58:45;21.48;;;14.68;;
44304;SDS011;30019;50.576;8.568;2024-03-06T12:01:11;26.38;;;17.02;;
44304;SDS011;30019;50.576;8.568;2024-03-06T12:03:38;20.60;;;15.15;;
44304;SDS011;30019;50.576;8.568;2024-03-06T12:06:04;18.55;;;14.18;;
44304;SDS011;30019;50.576;8.568;2024-03-06T12:08:30;17.75;;;13.63;;
44304;SDS011;30019;50.576;8.568;2024-03-06T12:10:56;23.50;;;16.40;;
44304;SDS011;30019;50.576;8.568;2024-03-06T12:13:23;16.88;;;12.93;;
44304;SDS011;30019;50.576;8.568;2024-03-06T12:15:49;19.30;;;14.10;;
44304;SDS011;30019;50.576;8.568;2024-03-06T12:18:17;18.92;;;13.63;;
44304;SDS011;30019;50.576;8.568;2024-03-06T12:20:43;18.17;;;14.27;;
44304;SDS011;30019;50.576;8.568;2024-03-06T12:23:23;17.75;;;13.55;;
44304;SDS011;30019;50.576;8.568;2024-03-06T12:26:01;19.02;;;14.00;;
44304;SDS011;30019;50.576;8.568;2024-03-06T12:28:27;21.80;;;14.63;;
44304;SDS011;30019;50.576;8.568;2024-03-06T12:30:54;19.67;;;14.02;;
44304;SDS011;30019;50.576;8.568;2024-03-06T12:33:20;22.85;;;15.10;;
44304;SDS011;30019;50.576;8.568;2024-03-06T12:35:46;25.45;;;16.25;;
44304;SDS011;30019;50.576;8.568;2024-03-06T12:38:16;16.88;;;12.50;;
44304;SDS011;30019;50.576;8.568;2024-03-06T12:40:42;36.88;;;19.38;;
44304;SDS011;30019;50.576;8.568;2024-03-06T12:43:09;20.67;;;13.65;;
44304;SDS011;30019;50.576;8.568;2024-03-06T12:45:35;21.85;;;14.80;;
44304;SDS011;30019;50.576;8.568;2024-03-06T12:48:02;21.60;;;14.07;;
44304;SDS011;30019;50.576;8.568;2024-03-06T12:50:29;16.98;;;12.43;;
44304;SDS011;30019;50.576;8.568;2024-03-06T12:52:55;20.52;;;13.35;;
44304;SDS011;30019;50.576;8.568;2024-03-06T12:55:26;15.77;;;11.63;;
44304;SDS011;30019;50.576;8.568;2024-03-06T12:57:52;13.82;;;10.77;;
44304;SDS011;30019;50.576;8.568;2024-03-06T13:00:19;15.75;;;12.07;;
44304;SDS011;30019;50.576;8.568;2024-03-06T13:02:45;14.45;;;10.63;;
44304;SDS011;30019;50.576;8.568;2024-03-06T13:05:11;19.30;;;13.52;;
44304;SDS011;30019;50.576;8.568;2024-03-06T13:07:38;17.38;;;12.30;;
44304;SDS011;30019;50.576;8.568;2024-03-06T13:10:06;19.17;;;13.10;;
44304;SDS011;30019;50.576;8.568;2024-03-06T13:12:35;18.08;;;12.43;;
44304;SDS011;30019;50.576;8.568;2024-03-06T13:15:01;19.60;;;12.10;;
44304;SDS011;30019;50.576;8.568;2024-03-06T13:17:27;21.13;;;13.88;;
44304;SDS011;30019;50.576;8.568;2024-03-06T13:19:54;20.58;;;12.98;;
44304;SDS011;30019;50.576;8.568;2024-03-06T13:22:21;20.23;;;13.43;;
44304;SDS011;30019;50.576;8.568;2024-03-06T13:24:47;21.85;;;13.95;;
44304;SDS011;30019;50.576;8.568;2024-03-06T13:27:13;18.25;;;12.52;;
44304;SDS011;30019;50.576;8.568;2024-03-06T13:29:39;15.90;;;12.57;;
44304;SDS011;30019;50.576;8.568;2024-03-06T13:32:08;22.77;;;14.00;;
44304;SDS011;30019;50.576;8.568;2024-03-06T13:34:34;16.83;;;12.65;;
44304;SDS011;30019;50.576;8.568;2024-03-06T13:37:00;20.83;;;12.45;;
44304;SDS011;30019;50.576;8.568;2024-03-06T13:39:26;20.67;;;12.80;;
44304;SDS011;30019;50.576;8.568;2024-03-06T13:41:52;19.63;;;12.45;;
44304;SDS011;30019;50.576;8.568;2024-03-06T13:44:18;18.50;;;11.80;;
44304;SDS011;30019;50.576;8.568;2024-03-06T13:46:46;19.15;;;12.95;;
44304;SDS011;30019;50.576;8.568;2024-03-06T13:51:58;19.25;;;12.65;;
44304;SDS011;30019;50.576;8.568;2024-03-06T13:54:24;19.20;;;12.85;;
44304;SDS011;30019;50.576;8.568;2024-03-06T13:56:50;18.52;;;12.95;;
44304;SDS011;30019;50.576;8.568;2024-03-06T13:59:16;18.45;;;12.57;;
44304;SDS011;30019;50.576;8.568;2024-03-06T14:01:42;17.20;;;11.85;;
44304;SDS011;30019;50.576;8.568;2024-03-06T14:04:08;21.50;;;12.75;;
44304;SDS011;30019;50.576;8.568;2024-03-06T14:06:34;19.70;;;12.90;;
44304;SDS011;30019;50.576;8.568;2024-03-06T14:09:00;17.50;;;11.73;;
44304;SDS011;30019;50.576;8.568;2024-03-06T14:11:26;20.10;;;12.70;;
44304;SDS011;30019;50.576;8.568;2024-03-06T14:13:54;17.98;;;11.65;;
44304;SDS011;30019;50.576;8.568;2024-03-06T14:16:20;17.50;;;11.93;;
44304;SDS011;30019;50.576;8.568;2024-03-06T14:18:46;18.15;;;12.05;;
44304;SDS011;30019;50.576;8.568;2024-03-06T14:21:12;19.42;;;13.35;;
44304;SDS011;30019;50.576;8.568;2024-03-06T14:23:38;18.90;;;12.98;;
44304;SDS011;30019;50.576;8.568;2024-03-06T14:26:04;14.73;;;11.50;;
44304;SDS011;30019;50.576;8.568;2024-03-06T14:28:31;16.30;;;10.90;;
44304;SDS011;30019;50.576;8.568;2024-03-06T14:30:57;17.88;;;12.18;;
44304;SDS011;30019;50.576;8.568;2024-03-06T14:33:23;18.08;;;12.23;;
44304;SDS011;30019;50.576;8.568;2024-03-06T14:35:49;14.20;;;10.68;;
44304;SDS011;30019;50.576;8.568;2024-03-06T14:38:15;16.58;;;11.88;;
44304;SDS011;30019;50.576;8.568;2024-03-06T14:40:41;18.95;;;12.50;;
44304;SDS011;30019;50.576;8.568;2024-03-06T14:43:07;18.55;;;11.82;;
44304;SDS011;30019;50.576;8.568;2024-03-06T14:45:34;16.13;;;10.75;;
44304;SDS011;30019;50.576;8.568;2024-03-06T14:48:07;14.75;;;10.80;;
44304;SDS011;30019;50.576;8.568;2024-03-06T14:50:32;18.42;;;11.60;;
44304;SDS011;30019;50.576;8.568;2024-03-06T14:52:58;15.05;;;11.07;;
44304;SDS011;30019;50.576;8.568;2024-03-06T14:55:25;15.38;;;10.73;;
44304;SDS011;30019;50.576;8.568;2024-03-06T14:57:51;17.85;;;11.60;;
44304;SDS011;30019;50.576;8.568;2024-03-06T15:00:17;15.02;;;10.80;;
44304;SDS011;30019;50.576;8.568;2024-03-06T15:02:46;18.08;;;10.77;;
44304;SDS011;30019;50.576;8.568;2024-03-06T15:05:12;15.75;;;10.90;;
44304;SDS011;30019;50.576;8.568;2024-03-06T15:07:38;16.45;;;11.32;;
44304;SDS011;30019;50.576;8.568;2024-03-06T15:10:05;18.35;;;12.63;;
44304;SDS011;30019;50.576;8.568;2024-03-06T15:12:31;19.35;;;12.85;;
44304;SDS011;30019;50.576;8.568;2024-03-06T15:14:57;20.65;;;12.98;;
44304;SDS011;30019;50.576;8.568;2024-03-06T15:17:24;24.92;;;14.23;;
44304;SDS011;30019;50.576;8.568;2024-03-06T15:19:53;19.73;;;12.55;;
44304;SDS011;30019;50.576;8.568;2024-03-06T15:22:19;22.95;;;13.82;;
44304;SDS011;30019;50.576;8.568;2024-03-06T15:24:45;27.13;;;15.45;;
44304;SDS011;30019;50.576;8.568;2024-03-06T15:27:11;22.65;;;15.27;;
44304;SDS011;30019;50.576;8.568;2024-03-06T15:29:37;26.15;;;15.13;;
44304;SDS011;30019;50.576;8.568;2024-03-06T15:32:03;16.60;;;10.63;;
44304;SDS011;30019;50.576;8.568;2024-03-06T15:34:29;24.90;;;14.20;;
44304;SDS011;30019;50.576;8.568;2024-03-06T15:36:55;23.42;;;15.93;;
44304;SDS011;30019;50.576;8.568;2024-03-06T15:39:21;22.40;;;14.70;;
44304;SDS011;30019;50.576;8.568;2024-03-06T15:41:47;20.85;;;13.50;;
44304;SDS011;30019;50.576;8.568;2024-03-06T15:44:13;23.77;;;13.68;;
44304;SDS011;30019;50.576;8.568;2024-03-06T15:46:39;22.20;;;14.05;;
44304;SDS011;30019;50.576;8.568;2024-03-06T15:49:06;14.27;;;8.77;;
44304;SDS011;30019;50.576;8.568;2024-03-06T15:51:32;22.20;;;15.02;;
44304;SDS011;30019;50.576;8.568;2024-03-06T15:53:58;25.05;;;15.85;;
44304;SDS011;30019;50.576;8.568;2024-03-06T15:56:24;27.40;;;16.85;;
44304;SDS011;30019;50.576;8.568;2024-03-06T15:58:50;28.50;;;17.75;;
44304;SDS011;30019;50.576;8.568;2024-03-06T16:01:16;26.98;;;17.77;;
44304;SDS011;30019;50.576;8.568;2024-03-06T16:03:42;31.50;;;17.92;;
44304;SDS011;30019;50.576;8.568;2024-03-06T16:06:09;33.05;;;20.67;;
44304;SDS011;30019;50.576;8.568;2024-03-06T16:08:36;36.65;;;21.38;;
44304;SDS011;30019;50.576;8.568;2024-03-06T16:11:02;34.63;;;20.35;;
44304;SDS011;30019;50.576;8.568;2024-03-06T16:13:28;32.90;;;20.70;;
44304;SDS011;30019;50.576;8.568;2024-03-06T16:15:54;34.88;;;20.63;;
44304;SDS011;30019;50.576;8.568;2024-03-06T16:18:23;39.85;;;22.38;;
44304;SDS011;30019;50.576;8.568;2024-03-06T16:33:21;44.33;;;23.60;;
44304;SDS011;30019;50.576;8.568;2024-03-06T16:35:47;41.92;;;21.88;;
44304;SDS011;30019;50.576;8.568;2024-03-06T16:38:13;33.72;;;17.90;;
44304;SDS011;30019;50.576;8.568;2024-03-06T16:40:41;44.22;;;24.45;;
44304;SDS011;30019;50.576;8.568;2024-03-06T16:43:07;43.22;;;25.80;;
44304;SDS011;30019;50.576;8.568;2024-03-06T16:45:33;40.90;;;22.75;;